createdAt,value
2023-01-09T00:00:44.982Z,3.92
2023-01-09T00:05:46.672Z,4.12
2023-01-09T00:10:49.994Z,4.15
2023-01-09T00:15:51.689Z,4.09
2023-01-09T00:20:54.395Z,4.34
2023-01-09T00:26:13.901Z,4.36
2023-01-09T00:31:16.087Z,4.37
2023-01-09T00:36:17.707Z,4.33
2023-01-09T00:41:36.002Z,4.10
2023-01-09T00:46:41.754Z,3.91
2023-01-09T00:51:43.469Z,4.07
2023-01-09T00:56:45.839Z,4.03
2023-01-09T01:01:47.686Z,4.21
2023-01-09T01:07:07.997Z,4.06
2023-01-09T01:12:09.639Z,4.16
2023-01-09T01:17:11.304Z,4.21
2023-01-09T01:22:13.061Z,4.04
2023-01-09T01:27:14.689Z,4.09
2023-01-09T01:32:16.308Z,3.90
2023-01-09T01:37:17.972Z,3.87
2023-01-09T01:42:19.675Z,4.05
2023-01-09T01:47:23.664Z,4.12
2023-01-09T01:52:26.367Z,3.96
2023-01-09T01:57:28.140Z,4.28
2023-01-09T02:02:31.996Z,4.29
2023-01-09T02:07:35.006Z,4.32
2023-01-09T02:12:36.610Z,4.37
2023-01-09T02:18:01.476Z,4.66
2023-01-09T02:23:39.887Z,5.01
2023-01-09T02:29:05.842Z,4.95
2023-01-09T02:34:14.181Z,5.34
2023-01-09T02:39:18.627Z,5.32
2023-01-09T02:44:27.914Z,5.32
2023-01-09T02:49:29.909Z,5.28
2023-01-09T02:54:37.483Z,5.38
2023-01-09T02:59:54.171Z,5.70
2023-01-09T03:05:28.855Z,5.54
2023-01-09T03:10:42.446Z,5.60
2023-01-09T03:15:50.710Z,5.74
2023-01-09T03:20:54.133Z,6.01
2023-01-09T03:25:55.724Z,5.88
2023-01-09T03:30:57.311Z,5.67
2023-01-09T03:35:58.945Z,5.64
2023-01-09T03:41:00.560Z,5.62
2023-01-09T03:46:03.004Z,5.62
2023-01-09T03:51:04.664Z,5.53
2023-01-09T03:56:06.613Z,5.44
2023-01-09T04:01:14.303Z,5.30
2023-01-09T04:06:15.966Z,5.26
2023-01-09T04:11:18.262Z,5.27
2023-01-09T04:16:19.963Z,5.39
2023-01-09T04:21:21.652Z,5.56
2023-01-09T04:26:23.414Z,5.62
2023-01-09T04:31:25.027Z,5.54
2023-01-09T04:36:26.717Z,5.59
2023-01-09T04:41:46.688Z,5.40
2023-01-09T04:46:48.811Z,5.38
2023-01-09T04:51:50.617Z,5.39
2023-01-09T04:56:52.212Z,5.29
2023-01-09T05:01:55.784Z,5.19
2023-01-09T05:06:57.504Z,5.19
2023-01-09T05:12:01.588Z,5.21
2023-01-09T05:17:03.584Z,5.17
2023-01-09T05:22:05.342Z,4.95
2023-01-09T05:27:07.084Z,4.99
2023-01-09T05:32:08.732Z,4.90
2023-01-09T05:37:10.372Z,4.70
2023-01-09T05:42:11.972Z,4.77
2023-01-09T05:47:13.628Z,4.59
2023-01-09T05:52:15.268Z,4.70
2023-01-09T05:57:17.176Z,4.65
2023-01-09T06:02:18.858Z,4.55
2023-01-09T06:07:23.281Z,4.60
2023-01-09T06:12:25.039Z,5.07
2023-01-09T06:17:26.674Z,5.09
2023-01-09T06:22:28.277Z,5.21
2023-01-09T06:27:30.017Z,5.08
2023-01-09T06:32:31.902Z,5.21
2023-01-09T06:37:33.589Z,5.44
2023-01-09T06:42:35.189Z,5.52
2023-01-09T06:47:36.787Z,6.16
2023-01-09T06:52:38.940Z,6.07
2023-01-09T06:57:40.557Z,6.19
2023-01-09T07:02:42.241Z,6.11
2023-01-09T07:07:43.894Z,6.27
2023-01-09T07:12:45.538Z,6.07
2023-01-09T07:17:47.186Z,6.13
2023-01-09T07:22:48.807Z,5.94
2023-01-09T07:27:50.472Z,5.90
2023-01-09T07:32:53.372Z,5.69
2023-01-09T07:37:54.986Z,5.66
2023-01-09T07:42:56.652Z,5.62
2023-01-09T07:47:58.287Z,5.47
2023-01-09T07:53:00.132Z,5.63
2023-01-09T07:58:01.809Z,5.81
2023-01-09T08:03:03.468Z,5.85
2023-01-09T08:08:05.358Z,5.95
2023-01-09T08:13:07.007Z,6.96
2023-01-09T08:18:08.856Z,7.35
2023-01-09T08:23:10.439Z,7.52
2023-01-09T08:28:12.682Z,7.76
2023-01-09T08:33:14.363Z,7.79
2023-01-09T08:38:16.050Z,7.98
2023-01-09T08:43:36.371Z,8.08
2023-01-09T08:48:37.986Z,8.15
2023-01-09T08:53:39.621Z,8.29
2023-01-09T08:58:41.221Z,8.35
2023-01-09T09:03:42.847Z,8.39
2023-01-09T09:08:44.487Z,8.44
2023-01-09T09:13:46.148Z,8.48
2023-01-09T09:18:47.733Z,8.63
2023-01-09T09:23:49.380Z,8.72
2023-01-09T09:28:50.970Z,8.57
2023-01-09T09:33:52.545Z,8.61
2023-01-09T09:38:54.141Z,8.75
2023-01-09T09:44:23.967Z,8.88
2023-01-09T09:49:40.323Z,9.01
2023-01-09T09:54:47.315Z,9.08
2023-01-09T09:59:51.511Z,9.19
2023-01-09T10:05:07.619Z,9.20
2023-01-09T10:10:38.138Z,9.35
2023-01-09T10:15:49.752Z,9.54
2023-01-09T10:21:10.531Z,9.50
2023-01-09T10:26:22.035Z,9.29
2023-01-09T10:31:48.784Z,9.35
2023-01-09T10:37:08.796Z,9.20
2023-01-09T10:42:55.672Z,8.89
2023-01-09T10:48:11.401Z,8.34
2023-01-09T10:53:21.375Z,7.96
2023-01-09T10:58:23.325Z,8.02
2023-01-09T11:03:28.010Z,8.23
2023-01-09T11:08:43.028Z,8.37
2023-01-09T11:13:48.591Z,8.57
2023-01-09T11:18:54.357Z,8.64
2023-01-09T11:23:56.656Z,8.71
2023-01-09T11:29:12.065Z,8.65
2023-01-09T11:34:18.872Z,8.61
2023-01-09T11:39:27.314Z,8.71
2023-01-09T11:44:31.911Z,8.69
2023-01-09T11:49:33.536Z,8.87
2023-01-09T11:54:38.314Z,9.47
2023-01-09T11:59:40.034Z,10.97
2023-01-09T12:05:17.438Z,11.89
2023-01-09T12:10:42.874Z,11.56
2023-01-09T12:16:11.509Z,10.28
2023-01-09T12:21:43.765Z,10.84
2023-01-09T12:27:21.486Z,12.23
2023-01-09T12:32:25.869Z,14.30
2023-01-09T12:37:33.209Z,13.36
2023-01-09T12:42:46.665Z,11.76
2023-01-09T12:47:50.180Z,10.16
2023-01-09T12:53:27.276Z,9.64
2023-01-09T12:58:40.448Z,9.82
2023-01-09T13:04:09.683Z,10.98
2023-01-09T13:09:29.404Z,10.89
2023-01-09T13:14:51.336Z,10.38
2023-01-09T13:19:54.196Z,9.88
2023-01-09T13:25:17.806Z,9.35
2023-01-09T13:30:45.096Z,9.24
2023-01-09T13:35:52.487Z,9.11
2023-01-09T13:41:30.455Z,9.06
2023-01-09T13:46:39.187Z,9.06
2023-01-09T13:51:43.504Z,8.94
2023-01-09T13:57:17.101Z,8.91
2023-01-09T14:02:34.072Z,8.98
2023-01-09T14:07:37.812Z,8.95
2023-01-09T14:12:41.887Z,8.73
2023-01-09T14:17:43.647Z,8.68
2023-01-09T14:22:56.050Z,8.59
2023-01-09T14:28:09.012Z,8.56
2023-01-09T14:33:19.891Z,8.51
2023-01-09T14:38:41.807Z,8.55
2023-01-09T14:44:03.468Z,8.50
2023-01-09T14:49:39.391Z,8.41
2023-01-09T14:54:44.061Z,8.28
2023-01-09T14:59:58.880Z,8.30
2023-01-09T15:05:09.565Z,8.30
2023-01-09T15:10:19.658Z,8.24
2023-01-09T15:15:22.542Z,8.26
2023-01-09T15:20:27.395Z,8.24
2023-01-09T15:25:40.005Z,8.20
2023-01-09T15:30:43.423Z,8.09
2023-01-09T15:35:49.588Z,8.16
2023-01-09T15:41:13.663Z,7.86
2023-01-09T15:46:16.213Z,7.73
2023-01-09T15:51:18.571Z,7.62
2023-01-09T15:56:25.645Z,7.49
2023-01-09T16:01:40.589Z,7.59
2023-01-09T16:06:52.664Z,7.55
2023-01-09T16:11:58.008Z,7.50
2023-01-09T16:17:02.311Z,7.52
2023-01-09T16:22:04.233Z,7.41
2023-01-09T16:27:34.948Z,7.39
2023-01-09T16:32:47.496Z,7.26
2023-01-09T16:37:49.099Z,7.19
2023-01-09T16:43:05.582Z,6.97
2023-01-09T16:48:13.965Z,6.62
2023-01-09T16:53:16.971Z,6.32
2023-01-09T16:58:25.528Z,6.17
2023-01-09T17:03:27.170Z,6.18
2023-01-09T17:08:31.672Z,6.58
2023-01-09T17:13:33.364Z,6.56
2023-01-09T17:18:34.954Z,6.77
2023-01-09T17:23:36.541Z,6.78
2023-01-09T17:28:39.251Z,6.61
2023-01-09T17:33:41.130Z,6.67
2023-01-09T17:38:42.733Z,6.47
2023-01-09T17:43:46.690Z,6.36
2023-01-09T17:48:48.780Z,6.51
2023-01-09T17:53:50.920Z,6.61
2023-01-09T17:58:52.940Z,6.43
2023-01-09T18:03:54.673Z,6.36
2023-01-09T18:08:58.201Z,6.18
2023-01-09T18:14:00.114Z,6.14
2023-01-09T18:19:02.331Z,5.99
2023-01-09T18:24:04.143Z,6.03
2023-01-09T18:29:05.735Z,6.01
2023-01-09T18:34:09.292Z,5.98
2023-01-09T18:39:11.804Z,5.92
2023-01-09T18:44:13.511Z,5.88
2023-01-09T18:49:15.124Z,5.81
2023-01-09T18:54:16.809Z,5.85
2023-01-09T18:59:18.418Z,5.82
2023-01-09T19:04:20.189Z,5.66
2023-01-09T19:09:21.814Z,5.69
2023-01-09T19:14:23.406Z,5.76
2023-01-09T19:19:25.748Z,5.84
2023-01-09T19:24:27.449Z,5.83
2023-01-09T19:29:29.658Z,6.16
2023-01-09T19:34:31.351Z,6.40
2023-01-09T19:39:32.942Z,6.46
2023-01-09T19:44:34.896Z,6.35
2023-01-09T19:49:36.821Z,6.38
2023-01-09T19:54:39.231Z,6.46
2023-01-09T19:59:40.851Z,6.26
2023-01-09T20:04:42.457Z,6.28
2023-01-09T20:09:44.154Z,6.41
2023-01-09T20:14:45.926Z,6.51
2023-01-09T20:19:47.523Z,6.66
2023-01-09T20:24:49.165Z,6.66
2023-01-09T20:29:50.795Z,6.71
2023-01-09T20:34:52.440Z,6.74
2023-01-09T20:39:54.089Z,6.70
2023-01-09T20:44:57.151Z,6.78
2023-01-09T20:49:58.742Z,6.87
2023-01-09T20:55:00.397Z,6.83
2023-01-09T21:00:02.218Z,6.94
2023-01-09T21:05:04.189Z,6.86
2023-01-09T21:10:06.253Z,6.78
2023-01-09T21:15:11.497Z,6.78
2023-01-09T21:20:15.044Z,6.70
2023-01-09T21:25:16.790Z,6.69
2023-01-09T21:30:18.518Z,6.68
2023-01-09T21:35:20.133Z,6.69
2023-01-09T21:40:21.766Z,6.68
2023-01-09T21:45:42.230Z,6.80
2023-01-09T21:50:43.883Z,6.77
2023-01-09T21:55:45.475Z,6.75
2023-01-09T22:00:47.113Z,6.73
2023-01-09T22:05:48.741Z,6.70
2023-01-09T22:10:58.589Z,6.59
2023-01-09T22:16:08.710Z,6.72
2023-01-09T22:21:10.388Z,6.89
2023-01-09T22:26:15.246Z,6.74
2023-01-09T22:31:22.065Z,6.63
2023-01-09T22:36:25.064Z,6.64
2023-01-09T22:41:29.755Z,6.58
2023-01-09T22:46:32.597Z,6.51
2023-01-09T22:51:34.320Z,6.46
2023-01-09T22:56:36.307Z,6.41
2023-01-09T23:01:37.987Z,6.37
2023-01-09T23:06:39.663Z,6.35
2023-01-09T23:11:59.755Z,6.40
2023-01-09T23:17:02.633Z,6.52
2023-01-09T23:22:04.852Z,6.48
2023-01-09T23:27:07.563Z,6.49
2023-01-09T23:32:09.171Z,6.48
2023-01-09T23:37:10.885Z,6.45
2023-01-09T23:42:31.052Z,6.52
2023-01-09T23:47:32.644Z,6.46
2023-01-09T23:52:34.234Z,6.49
2023-01-09T23:57:35.834Z,6.49
